createdAt,value
2019-04-30T00:01:36.233Z,11.27
2019-04-30T00:04:15.790Z,9.80
2019-04-30T00:06:47.533Z,9.23
2019-04-30T00:09:22.580Z,10.63
2019-04-30T00:11:57.900Z,10.27
2019-04-30T00:14:32.512Z,10.77
2019-04-30T00:17:00.975Z,10.73
2019-04-30T00:19:32.674Z,10.43
2019-04-30T00:22:05.720Z,10.77
2019-04-30T00:24:39.970Z,11.27
2019-04-30T00:27:10.897Z,10.87
2019-04-30T00:29:42.591Z,10.50
2019-04-30T00:32:15.941Z,12.13
2019-04-30T00:34:47.776Z,11.53
2019-04-30T00:37:19.425Z,11.47
2019-04-30T00:39:52.949Z,12.33
2019-04-30T00:42:28.546Z,12.43
2019-04-30T00:44:59.686Z,11.97
2019-04-30T00:47:31.705Z,13.20
2019-04-30T00:50:04.987Z,11.77
2019-04-30T00:52:37.352Z,12.33
2019-04-30T00:55:09.634Z,12.10
2019-04-30T00:57:47.399Z,11.97
2019-04-30T01:00:19.747Z,12.37
2019-04-30T01:03:09.386Z,12.70
2019-04-30T01:05:44.483Z,13.03
2019-04-30T01:08:15.412Z,13.97
2019-04-30T01:10:46.692Z,12.60
2019-04-30T01:13:19.176Z,13.53
2019-04-30T01:15:52.451Z,13.47
2019-04-30T01:18:28.554Z,14.07
2019-04-30T01:20:58.670Z,13.57
2019-04-30T01:23:30.485Z,15.07
2019-04-30T01:26:02.879Z,13.67
2019-04-30T01:28:34.803Z,14.73
2019-04-30T01:31:06.479Z,14.53
2019-04-30T01:33:38.983Z,14.13
2019-04-30T01:36:13.340Z,14.00
2019-04-30T01:38:44.828Z,14.43
2019-04-30T01:41:22.039Z,15.27
2019-04-30T01:43:51.406Z,13.97
2019-04-30T01:46:23.104Z,14.07
2019-04-30T01:48:54.737Z,14.23
2019-04-30T01:51:28.248Z,14.23
2019-04-30T01:54:00.052Z,14.10
2019-04-30T01:56:53.463Z,14.20
2019-04-30T01:59:29.115Z,13.43
2019-04-30T02:02:02.097Z,14.00
2019-04-30T02:04:33.779Z,13.93
2019-04-30T02:07:05.458Z,13.13
2019-04-30T02:09:38.811Z,15.10
2019-04-30T02:12:10.551Z,13.80
2019-04-30T02:14:42.250Z,14.90
2019-04-30T02:17:13.934Z,14.00
2019-04-30T02:19:56.432Z,13.70
2019-04-30T02:22:19.129Z,13.67
2019-04-30T02:24:50.801Z,13.50
2019-04-30T02:27:22.460Z,12.57
2019-04-30T02:29:54.149Z,13.00
2019-04-30T02:32:25.787Z,13.40
2019-04-30T02:35:05.927Z,13.53
2019-04-30T02:37:40.418Z,13.20
2019-04-30T02:40:12.531Z,14.53
2019-04-30T02:42:44.329Z,13.20
2019-04-30T02:45:16.238Z,13.77
2019-04-30T02:47:49.988Z,13.03
2019-04-30T02:50:22.749Z,12.47
2019-04-30T02:52:56.602Z,12.83
2019-04-30T02:55:43.851Z,13.07
2019-04-30T02:58:15.499Z,13.60
2019-04-30T03:00:49.518Z,13.97
2019-04-30T03:03:20.574Z,13.70
2019-04-30T03:05:52.211Z,14.03
2019-04-30T03:08:23.843Z,14.93
2019-04-30T03:10:55.505Z,13.17
2019-04-30T03:13:29.844Z,12.70
2019-04-30T03:16:00.613Z,13.50
2019-04-30T03:18:39.605Z,13.63
2019-04-30T03:21:19.074Z,13.23
2019-04-30T03:23:50.388Z,13.67
2019-04-30T03:26:22.164Z,13.43
2019-04-30T03:28:53.844Z,13.17
2019-04-30T03:31:25.538Z,14.07
2019-04-30T03:34:01.547Z,12.63
2019-04-30T03:36:32.576Z,13.50
2019-04-30T03:39:05.697Z,13.13
2019-04-30T03:41:40.431Z,14.17
2019-04-30T03:44:24.706Z,12.77
2019-04-30T03:46:44.137Z,13.33
2019-04-30T03:49:15.779Z,13.53
2019-04-30T03:51:49.682Z,14.20
2019-04-30T03:54:20.893Z,13.47
2019-04-30T03:56:54.209Z,13.33
2019-04-30T03:59:25.995Z,14.70
2019-04-30T04:02:20.808Z,13.67
2019-04-30T04:05:00.893Z,13.67
2019-04-30T04:07:42.472Z,13.23
2019-04-30T04:10:21.577Z,14.23
2019-04-30T04:12:53.226Z,15.20
2019-04-30T04:15:24.914Z,14.13
2019-04-30T04:17:56.566Z,13.87
2019-04-30T04:20:29.856Z,13.73
2019-04-30T04:23:01.629Z,15.20
2019-04-30T04:25:33.301Z,14.80
2019-04-30T04:28:05.004Z,16.40
2019-04-30T04:30:36.684Z,16.10
2019-04-30T04:33:10.256Z,15.60
2019-04-30T04:35:42.038Z,14.87
2019-04-30T04:38:13.762Z,16.20
2019-04-30T04:40:45.432Z,15.93
2019-04-30T04:43:17.134Z,15.10
2019-04-30T04:45:49.876Z,14.50
2019-04-30T04:48:23.115Z,16.13
2019-04-30T04:50:55.103Z,15.30
2019-04-30T04:53:26.816Z,15.33
2019-04-30T04:55:59.909Z,15.27
2019-04-30T04:58:31.793Z,14.60
2019-04-30T05:01:03.490Z,15.23
2019-04-30T05:03:39.828Z,15.63
2019-04-30T05:06:12.373Z,15.20
2019-04-30T05:08:44.100Z,14.50
2019-04-30T05:11:15.796Z,14.23
2019-04-30T05:13:48.993Z,15.17
2019-04-30T05:16:20.840Z,14.30
2019-04-30T05:18:52.540Z,14.17
2019-04-30T05:21:24.317Z,15.13
2019-04-30T05:23:56.106Z,15.63
2019-04-30T05:26:28.688Z,15.37
2019-04-30T05:29:00.513Z,16.23
2019-04-30T05:31:32.182Z,14.50
2019-04-30T05:34:06.309Z,14.53
2019-04-30T05:36:39.180Z,13.30
2019-04-30T05:39:11.040Z,14.03
2019-04-30T05:41:42.704Z,14.50
2019-04-30T05:44:14.402Z,15.40
2019-04-30T05:46:46.165Z,14.97
2019-04-30T05:49:20.234Z,13.63
2019-04-30T05:51:55.503Z,13.83
2019-04-30T05:54:24.728Z,14.80
2019-04-30T05:56:56.433Z,14.87
2019-04-30T05:59:28.969Z,14.60
2019-04-30T06:02:00.915Z,14.63
2019-04-30T06:04:32.580Z,14.77
2019-04-30T06:07:04.337Z,13.80
2019-04-30T06:09:59.676Z,14.70
2019-04-30T06:12:39.857Z,14.33
2019-04-30T06:15:31.806Z,13.30
2019-04-30T06:18:12.836Z,14.80
2019-04-30T06:20:38.616Z,15.40
2019-04-30T06:23:10.516Z,15.40
2019-04-30T06:25:56.256Z,14.93
2019-04-30T06:28:16.138Z,16.97
2019-04-30T06:30:49.243Z,15.80
2019-04-30T06:33:21.124Z,18.47
2019-04-30T06:35:53.093Z,16.13
2019-04-30T06:38:24.805Z,17.23
2019-04-30T06:40:56.652Z,15.10
2019-04-30T06:43:28.828Z,15.27
2019-04-30T06:46:00.796Z,15.63
2019-04-30T06:48:34.093Z,14.87
2019-04-30T06:51:05.851Z,14.40
2019-04-30T06:53:39.182Z,15.33
2019-04-30T06:56:11.024Z,14.43
2019-04-30T06:58:42.706Z,15.53
2019-04-30T07:01:14.429Z,15.10
2019-04-30T07:03:46.110Z,17.00
2019-04-30T07:06:29.244Z,17.37
2019-04-30T07:09:00.808Z,17.30
2019-04-30T07:11:41.215Z,16.87
2019-04-30T07:18:09.116Z,18.40
2019-04-30T07:20:40.955Z,18.47
2019-04-30T07:23:12.637Z,19.03
2019-04-30T07:27:04.530Z,18.23
2019-04-30T07:29:36.388Z,16.83
2019-04-30T07:32:10.486Z,18.07
2019-04-30T07:34:42.223Z,17.90
2019-04-30T07:52:34.385Z,16.70
2019-04-30T07:55:01.348Z,17.63
2019-04-30T07:57:33.051Z,17.83
2019-04-30T08:00:05.240Z,19.13
2019-04-30T08:02:43.689Z,20.67
2019-04-30T08:05:40.169Z,19.20
2019-04-30T08:08:25.099Z,18.43
2019-04-30T08:10:51.791Z,17.90
2019-04-30T08:13:24.067Z,18.20
2019-04-30T08:15:55.991Z,18.63
2019-04-30T08:18:49.892Z,17.97
2019-04-30T08:21:21.631Z,17.83
2019-04-30T08:23:53.309Z,17.77
2019-04-30T08:26:25.025Z,16.27
2019-04-30T08:28:56.741Z,17.37
2019-04-30T08:31:29.205Z,18.73
2019-04-30T08:34:01.900Z,18.23
2019-04-30T08:36:33.611Z,18.17
2019-04-30T08:39:07.132Z,17.87
2019-04-30T08:41:39.285Z,18.13
2019-04-30T08:44:11.007Z,16.40
2019-04-30T08:46:43.329Z,17.57
2019-04-30T08:49:15.318Z,17.07
2019-04-30T08:51:49.080Z,17.80
2019-04-30T08:54:21.104Z,16.97
2019-04-30T08:56:53.291Z,17.77
2019-04-30T08:59:24.991Z,17.57
2019-04-30T09:01:58.755Z,17.77
2019-04-30T09:04:30.197Z,17.27
2019-04-30T09:07:01.875Z,17.27
2019-04-30T09:09:33.980Z,17.10
2019-04-30T09:12:05.640Z,17.77
2019-04-30T09:14:40.450Z,17.20
2019-04-30T09:17:10.927Z,16.90
2019-04-30T09:19:42.765Z,18.37
2019-04-30T09:22:15.297Z,19.23
2019-04-30T09:24:47.003Z,17.43
2019-04-30T09:27:19.569Z,19.70
2019-04-30T09:29:51.455Z,17.10
2019-04-30T09:32:23.226Z,19.63
2019-04-30T09:34:54.958Z,17.97
2019-04-30T09:37:26.610Z,16.90
2019-04-30T09:39:59.205Z,17.50
2019-04-30T09:42:31.049Z,17.57
2019-04-30T09:45:02.739Z,17.60
2019-04-30T09:47:34.464Z,16.77
2019-04-30T09:50:09.010Z,17.60
2019-04-30T09:52:40.707Z,16.37
2019-04-30T09:55:13.194Z,16.00
2019-04-30T09:57:44.986Z,16.63
2019-04-30T10:00:19.368Z,16.00
2019-04-30T10:02:51.183Z,16.23
2019-04-30T10:05:23.023Z,15.97
2019-04-30T10:07:54.738Z,16.83
2019-04-30T10:10:31.587Z,16.30
2019-04-30T10:13:03.371Z,16.87
2019-04-30T10:15:50.188Z,16.67
2019-04-30T10:18:21.906Z,16.10
2019-04-30T10:20:53.678Z,15.80
2019-04-30T10:23:25.967Z,15.67
2019-04-30T10:25:58.455Z,15.40
2019-04-30T10:28:30.494Z,14.57
2019-04-30T10:31:02.243Z,15.63
2019-04-30T10:33:34.573Z,17.32
2019-04-30T10:36:06.294Z,14.50
2019-04-30T10:38:39.402Z,12.90
2019-04-30T10:41:11.219Z,12.98
2019-04-30T10:43:42.878Z,14.23
2019-04-30T10:46:14.805Z,12.70
2019-04-30T10:48:46.621Z,12.80
2019-04-30T10:51:18.921Z,12.63
2019-04-30T10:53:51.287Z,12.58
2019-04-30T10:56:23.575Z,11.80
2019-04-30T10:58:55.936Z,13.13
2019-04-30T11:01:29.187Z,12.30
2019-04-30T11:04:01.552Z,13.25
2019-04-30T11:06:33.839Z,12.75
2019-04-30T11:09:09.136Z,12.60
2019-04-30T11:11:41.521Z,13.43
2019-04-30T11:14:14.271Z,11.28
2019-04-30T11:16:46.807Z,13.80
2019-04-30T11:19:19.551Z,13.28
2019-04-30T11:21:52.083Z,12.37
2019-04-30T11:24:35.941Z,12.00
2019-04-30T11:27:00.142Z,12.73
2019-04-30T11:29:33.270Z,12.13
2019-04-30T11:32:21.318Z,11.70
2019-04-30T11:34:53.701Z,12.00
2019-04-30T11:37:26.198Z,11.55
2019-04-30T11:39:58.525Z,10.90
2019-04-30T11:42:32.344Z,10.48
2019-04-30T11:45:05.538Z,11.45
2019-04-30T11:47:39.385Z,10.53
2019-04-30T11:50:15.529Z,10.30
2019-04-30T11:52:47.869Z,10.58
2019-04-30T11:55:20.249Z,12.37
2019-04-30T11:57:52.859Z,11.12
2019-04-30T12:00:33.832Z,10.72
2019-04-30T12:03:06.486Z,12.15
2019-04-30T12:05:38.942Z,13.78
2019-04-30T12:08:26.635Z,13.55
2019-04-30T12:11:15.322Z,12.78
2019-04-30T12:13:47.760Z,13.40
2019-04-30T12:16:20.270Z,11.65
2019-04-30T12:18:52.637Z,11.22
2019-04-30T12:21:26.231Z,10.18
2019-04-30T12:23:58.616Z,10.78
2019-04-30T12:26:31.010Z,10.28
2019-04-30T12:29:03.399Z,13.48
2019-04-30T12:31:35.777Z,12.85
2019-04-30T12:34:08.116Z,11.33
2019-04-30T12:36:40.493Z,9.78
2019-04-30T12:39:12.916Z,10.00
2019-04-30T12:41:45.300Z,10.15
2019-04-30T12:44:17.809Z,9.73
2019-04-30T12:46:50.168Z,9.98
2019-04-30T12:49:22.583Z,10.93
2019-04-30T12:52:19.868Z,10.20
2019-04-30T12:54:56.352Z,13.43
2019-04-30T12:57:41.124Z,13.00
2019-04-30T13:00:19.358Z,13.10
2019-04-30T13:02:51.340Z,13.75
2019-04-30T13:05:23.712Z,12.58
2019-04-30T13:07:56.739Z,12.68
2019-04-30T13:10:30.379Z,12.95
2019-04-30T13:13:03.202Z,14.50
2019-04-30T13:15:35.834Z,12.75
2019-04-30T13:18:09.559Z,12.45
2019-04-30T13:20:42.039Z,13.43
2019-04-30T13:23:13.766Z,13.22
2019-04-30T13:25:51.252Z,13.00
2019-04-30T13:28:21.657Z,14.25
2019-04-30T13:30:53.351Z,13.35
2019-04-30T13:33:40.259Z,13.62
2019-04-30T13:36:12.018Z,13.28
2019-04-30T13:39:11.568Z,12.78
2019-04-30T13:41:59.228Z,13.85
2019-04-30T14:01:09.464Z,13.03
2019-04-30T14:03:59.009Z,12.93
2019-04-30T14:06:32.711Z,13.03
2019-04-30T14:09:43.796Z,12.87
2019-04-30T14:12:15.591Z,12.43
2019-04-30T14:14:49.338Z,12.93
2019-04-30T14:17:21.225Z,13.50
2019-04-30T14:19:52.979Z,13.50
2019-04-30T14:22:25.989Z,12.87
2019-04-30T14:24:57.849Z,13.50
2019-04-30T14:27:29.534Z,13.40
2019-04-30T14:30:01.450Z,15.30
2019-04-30T14:32:33.183Z,15.03
2019-04-30T14:35:05.184Z,14.57
2019-04-30T14:37:38.954Z,14.07
2019-04-30T14:40:13.029Z,15.77
2019-04-30T14:42:53.674Z,14.03
2019-04-30T14:45:31.620Z,13.20
2019-04-30T14:48:26.904Z,14.10
2019-04-30T14:50:59.064Z,13.43
2019-04-30T14:53:39.324Z,13.90
2019-04-30T14:56:34.437Z,14.43
2019-04-30T14:59:28.988Z,14.10
2019-04-30T15:02:15.385Z,13.57
2019-04-30T15:04:48.717Z,15.73
2019-04-30T15:07:20.456Z,15.93
2019-04-30T15:09:52.354Z,14.67
2019-04-30T15:12:24.277Z,15.13
2019-04-30T15:14:56.020Z,16.10
2019-04-30T15:17:28.333Z,14.80
2019-04-30T15:20:00.421Z,15.63
2019-04-30T15:22:33.311Z,15.33
2019-04-30T15:25:05.461Z,14.70
2019-04-30T15:27:45.294Z,15.57
2019-04-30T15:30:22.062Z,14.93
2019-04-30T15:32:59.365Z,14.20
2019-04-30T15:35:31.139Z,14.20
2019-04-30T15:38:03.182Z,16.00
2019-04-30T15:40:36.331Z,15.77
2019-04-30T15:43:09.497Z,16.07
2019-04-30T15:45:41.223Z,15.70
2019-04-30T15:48:13.082Z,14.97
2019-04-30T15:50:44.839Z,15.03
2019-04-30T15:53:16.661Z,14.63
2019-04-30T15:55:48.399Z,14.07
2019-04-30T15:58:24.384Z,14.80
2019-04-30T16:00:59.773Z,15.80
2019-04-30T16:03:33.497Z,14.90
2019-04-30T16:06:05.164Z,15.27
2019-04-30T16:08:42.504Z,15.90
2019-04-30T16:11:21.265Z,15.37
2019-04-30T16:14:14.654Z,15.27
2019-04-30T16:16:51.707Z,14.60
2019-04-30T16:19:23.497Z,13.17
2019-04-30T16:21:55.348Z,15.07
2019-04-30T16:24:28.704Z,14.30
2019-04-30T16:27:00.569Z,14.77
2019-04-30T16:29:32.368Z,14.10
2019-04-30T16:32:04.217Z,13.83
2019-04-30T16:34:35.988Z,13.83
2019-04-30T16:37:07.695Z,14.43
2019-04-30T16:39:39.813Z,13.50
2019-04-30T16:42:11.841Z,13.67
2019-04-30T16:44:43.641Z,15.00
2019-04-30T16:47:17.045Z,14.57
2019-04-30T16:49:50.506Z,14.00
2019-04-30T16:52:22.223Z,17.00
2019-04-30T16:54:55.770Z,15.10
2019-04-30T16:57:30.404Z,14.97
2019-04-30T17:00:02.149Z,13.73
2019-04-30T17:02:35.912Z,15.30
2019-04-30T17:05:16.192Z,14.67
2019-04-30T17:07:55.962Z,13.17
2019-04-30T17:10:35.322Z,14.00
2019-04-30T17:13:13.908Z,14.47
2019-04-30T17:15:45.858Z,14.33
2019-04-30T17:18:19.079Z,13.47
2019-04-30T17:20:51.408Z,14.10
2019-04-30T17:23:23.141Z,14.30
2019-04-30T17:25:54.989Z,13.20
2019-04-30T17:28:28.565Z,13.33
2019-04-30T17:31:00.435Z,13.20
2019-04-30T17:33:34.106Z,13.20
2019-04-30T17:36:08.361Z,13.77
2019-04-30T17:38:39.968Z,13.53
2019-04-30T17:41:12.117Z,13.40
2019-04-30T17:43:45.193Z,13.77
2019-04-30T17:46:19.966Z,14.80
2019-04-30T17:48:50.635Z,12.97
2019-04-30T17:51:22.884Z,13.53
2019-04-30T17:54:16.279Z,12.93
2019-04-30T17:56:48.239Z,13.63
2019-04-30T17:59:19.912Z,13.10
2019-04-30T18:01:56.569Z,14.70
2019-04-30T18:04:29.649Z,12.57
2019-04-30T18:07:01.990Z,13.30
2019-04-30T18:09:38.825Z,12.53
2019-04-30T18:12:10.217Z,13.63
2019-04-30T18:14:41.962Z,13.83
2019-04-30T18:17:14.774Z,13.63
2019-04-30T18:19:56.165Z,12.77
2019-04-30T18:22:50.042Z,13.27
2019-04-30T18:25:43.703Z,11.80
2019-04-30T18:28:15.635Z,11.83
2019-04-30T18:30:49.078Z,12.70
2019-04-30T18:33:21.012Z,13.03
2019-04-30T18:35:52.860Z,13.17
2019-04-30T18:38:24.704Z,13.23
2019-04-30T18:40:56.533Z,12.73
2019-04-30T18:43:28.786Z,13.30
2019-04-30T18:46:00.833Z,12.57
2019-04-30T18:48:34.444Z,13.30
2019-04-30T18:51:19.195Z,12.30
2019-04-30T18:53:40.298Z,12.40
2019-04-30T18:56:14.862Z,12.57
2019-04-30T18:58:48.696Z,13.47
2019-04-30T19:01:20.898Z,12.53
2019-04-30T19:03:52.721Z,13.03
2019-04-30T19:06:29.491Z,12.67
2019-04-30T19:09:26.448Z,12.03
2019-04-30T19:12:12.891Z,12.33
2019-04-30T19:15:03.541Z,11.47
2019-04-30T19:17:53.148Z,11.20
2019-04-30T19:20:29.317Z,12.37
2019-04-30T19:23:01.198Z,11.70
2019-04-30T19:25:34.176Z,12.80
2019-04-30T19:28:12.147Z,11.03
2019-04-30T19:30:40.977Z,11.83
2019-04-30T19:33:13.928Z,12.07
2019-04-30T19:35:45.773Z,13.27
2019-04-30T19:38:17.891Z,12.43
2019-04-30T19:40:51.618Z,12.17
2019-04-30T19:43:23.517Z,11.73
2019-04-30T19:45:55.576Z,12.47
2019-04-30T19:48:27.869Z,11.43
2019-04-30T19:50:59.629Z,11.97
2019-04-30T19:53:31.602Z,12.00
2019-04-30T19:56:03.418Z,11.57
2019-04-30T19:58:48.767Z,12.50
2019-04-30T20:01:09.612Z,12.20
2019-04-30T20:03:41.771Z,15.30
2019-04-30T20:06:13.565Z,13.80
2019-04-30T20:08:45.341Z,13.43
2019-04-30T20:11:17.127Z,12.93
2019-04-30T20:13:49.090Z,13.40
2019-04-30T20:16:20.923Z,12.73
2019-04-30T20:18:52.688Z,11.80
2019-04-30T20:21:28.871Z,12.60
2019-04-30T20:23:58.979Z,12.10
2019-04-30T20:26:30.834Z,13.80
2019-04-30T20:29:02.656Z,12.23
2019-04-30T20:31:34.455Z,12.47
2019-04-30T20:34:06.503Z,12.10
2019-04-30T20:36:38.891Z,12.80
2019-04-30T20:39:22.005Z,11.50
2019-04-30T20:41:54.378Z,11.93
2019-04-30T20:44:26.259Z,12.30
2019-04-30T20:46:59.110Z,12.20
2019-04-30T20:49:31.110Z,12.93
2019-04-30T20:52:02.996Z,12.40
2019-04-30T20:54:34.817Z,12.30
2019-04-30T20:57:08.615Z,12.90
2019-04-30T20:59:40.339Z,11.50
2019-04-30T21:02:12.153Z,12.00
2019-04-30T21:04:43.983Z,13.40
2019-04-30T21:07:15.703Z,13.03
2019-04-30T21:09:47.528Z,13.17
2019-04-30T21:12:19.284Z,12.10
2019-04-30T21:14:51.018Z,12.57
2019-04-30T21:17:32.020Z,11.73
2019-04-30T21:20:10.072Z,12.40
2019-04-30T21:22:41.871Z,13.87
2019-04-30T21:25:18.426Z,12.83
2019-04-30T21:27:54.289Z,12.77
2019-04-30T21:30:28.247Z,12.03
2019-04-30T21:33:19.421Z,12.47
2019-04-30T21:35:54.484Z,12.07
2019-04-30T21:38:26.286Z,12.00
2019-04-30T21:41:01.184Z,12.73
2019-04-30T21:43:33.366Z,11.17
2019-04-30T21:46:05.246Z,11.53
2019-04-30T21:48:38.918Z,12.27
2019-04-30T21:51:10.613Z,13.13
2019-04-30T21:53:42.356Z,12.50
2019-04-30T21:56:14.231Z,11.50
2019-04-30T21:58:45.929Z,11.63
2019-04-30T22:01:27.283Z,12.30
2019-04-30T22:03:58.967Z,12.83
2019-04-30T22:06:30.730Z,12.63
2019-04-30T22:09:02.601Z,12.47
2019-04-30T22:11:34.357Z,12.57
2019-04-30T22:14:06.313Z,12.03
2019-04-30T22:16:39.778Z,12.13
2019-04-30T22:19:13.626Z,12.13
2019-04-30T22:21:45.490Z,13.50
2019-04-30T22:24:17.268Z,12.93
2019-04-30T22:26:49.023Z,12.93
2019-04-30T22:29:20.828Z,12.67
2019-04-30T22:31:52.676Z,12.87
2019-04-30T22:34:24.492Z,12.93
2019-04-30T22:36:58.632Z,12.40
2019-04-30T22:39:41.558Z,12.93
2019-04-30T22:42:35.892Z,13.30
2019-04-30T22:45:19.484Z,12.40
2019-04-30T22:47:51.230Z,12.37
2019-04-30T22:50:23.114Z,12.33
2019-04-30T22:52:55.006Z,12.10
2019-04-30T22:55:26.725Z,13.77
2019-04-30T22:57:58.501Z,13.43
2019-04-30T23:00:43.026Z,12.93
2019-04-30T23:03:25.804Z,13.37
2019-04-30T23:05:57.513Z,12.63
2019-04-30T23:08:30.632Z,12.57
2019-04-30T23:11:02.333Z,14.10
2019-04-30T23:13:34.082Z,13.43
2019-04-30T23:16:06.393Z,13.43
2019-04-30T23:18:38.125Z,13.90
2019-04-30T23:21:09.828Z,14.17
2019-04-30T23:23:41.658Z,14.83
2019-04-30T23:26:13.396Z,14.13
2019-04-30T23:28:45.130Z,14.30
2019-04-30T23:31:16.827Z,14.43
2019-04-30T23:33:48.555Z,14.47
2019-04-30T23:36:20.797Z,15.70
2019-04-30T23:38:52.634Z,15.07
2019-04-30T23:41:24.727Z,14.83
2019-04-30T23:43:56.434Z,16.03
2019-04-30T23:46:28.155Z,15.87
2019-04-30T23:49:00.003Z,14.27
2019-04-30T23:51:33.759Z,15.33
2019-04-30T23:54:05.589Z,15.77
2019-04-30T23:56:37.290Z,15.43
2019-04-30T23:59:09.095Z,14.40
